Time;durP1;ratioP1;P1;durP2;ratioP2;P2;SDS_P1;SDS_P2;PMS_P1;PMS_P2;Temp;Humidity;BMP_temperature;BMP_pressure;BME280_temperature;BME280_humidity;BME280_pressure;Samples;Min_cycle;Max_cycle;Signal;HPM_P1;HPM_P2
2022/05/16 00:01:29;;;;;;;13.13;11.73;;;17.30;72.30;;;;;;4985494;28;20034;-74
2022/05/16 00:03:55;;;;;;;12.20;10.90;;;17.40;72.60;;;;;;4989918;28;20525;-75
2022/05/16 00:06:21;;;;;;;12.38;11.15;;;17.40;72.60;;;;;;4984751;28;20145;-74
2022/05/16 00:08:47;;;;;;;12.50;11.35;;;17.40;72.60;;;;;;4970247;28;20561;-76
2022/05/16 00:11:14;;;;;;;13.55;11.25;;;17.40;72.60;;;;;;4986416;28;20095;-76
2022/05/16 00:13:39;;;;;;;13.18;11.15;;;17.30;72.50;;;;;;4990862;28;20424;-76
2022/05/16 00:16:05;;;;;;;13.05;11.73;;;17.30;73.00;;;;;;4995468;28;20557;-76
2022/05/16 00:18:32;;;;;;;13.20;12.00;;;17.30;73.10;;;;;;5010826;28;20025;-76
2022/05/16 00:20:58;;;;;;;14.30;12.60;;;17.30;72.50;;;;;;5014129;28;20195;-76
2022/05/16 00:23:24;;;;;;;13.05;11.65;;;17.30;72.60;;;;;;5012445;28;20271;-76
2022/05/16 00:25:50;;;;;;;12.68;11.50;;;17.30;72.60;;;;;;5002300;28;20043;-76
2022/05/16 00:28:16;;;;;;;13.70;12.25;;;17.30;72.70;;;;;;4991676;28;20034;-76
2022/05/16 00:30:42;;;;;;;14.48;13.00;;;17.30;72.70;;;;;;4987277;28;20066;-76
2022/05/16 00:33:08;;;;;;;13.75;12.35;;;17.30;72.70;;;;;;4964022;28;20030;-76
2022/05/16 00:35:34;;;;;;;15.05;13.20;;;17.20;72.60;;;;;;4985740;28;20508;-75
2022/05/16 00:38:00;;;;;;;14.07;12.65;;;17.20;72.60;;;;;;4981301;28;20114;-76
2022/05/16 00:40:25;;;;;;;15.43;13.98;;;17.20;72.60;;;;;;4971345;28;20150;-77
2022/05/16 00:42:59;;;;;;;14.60;13.25;;;17.20;72.60;;;;;;4985441;28;20065;-76
2022/05/16 00:45:25;;;;;;;14.15;12.75;;;17.20;73.20;;;;;;4987564;28;20038;-76
2022/05/16 00:47:51;;;;;;;14.85;13.00;;;17.20;72.70;;;;;;4965028;28;20516;-76
2022/05/16 00:50:17;;;;;;;13.25;12.02;;;17.20;72.70;;;;;;4967091;28;20163;-76
2022/05/16 00:52:47;;;;;;;13.35;12.07;;;17.10;72.60;;;;;;4982417;28;20426;-74
2022/05/16 00:55:20;;;;;;;14.65;13.07;;;17.10;72.60;;;;;;4985174;28;20042;-76
2022/05/16 00:57:50;;;;;;;15.75;13.85;;;17.10;72.70;;;;;;4984684;28;20026;-76
2022/05/16 01:00:28;;;;;;;15.63;13.88;;;17.10;72.80;;;;;;4963338;28;20030;-76
2022/05/16 01:05:54;;;;;;;15.98;14.35;;;17.00;72.70;;;;;;4984793;28;20490;-76
2022/05/16 01:08:23;;;;;;;16.83;15.13;;;17.00;73.20;;;;;;4969490;28;20034;-77
2022/05/16 01:10:56;;;;;;;22.17;16.15;;;17.00;72.70;;;;;;4955758;28;20034;-76
2022/05/16 01:13:27;;;;;;;16.98;15.27;;;17.00;72.90;;;;;;4990329;28;20545;-74
2022/05/16 01:15:54;;;;;;;16.70;15.02;;;17.00;72.90;;;;;;4988503;28;20370;-74
2022/05/16 01:18:23;;;;;;;16.23;14.63;;;16.90;72.70;;;;;;4970904;28;20034;-74
2022/05/16 01:21:06;;;;;;;19.00;15.50;;;16.90;72.80;;;;;;4987089;28;20034;-74
2022/05/16 01:23:41;;;;;;;15.05;13.43;;;17.00;73.10;;;;;;4982925;28;20172;-74
2022/05/16 01:26:12;;;;;;;16.05;13.95;;;17.00;73.00;;;;;;4976841;28;20039;-73
2022/05/16 01:28:38;;;;;;;17.38;14.70;;;16.90;72.80;;;;;;4984048;28;20031;-75
2022/05/16 01:31:04;;;;;;;16.33;13.90;;;17.00;72.90;;;;;;4985846;28;20042;-76
2022/05/16 01:33:30;;;;;;;15.48;13.93;;;16.90;72.80;;;;;;4987265;28;20040;-76
2022/05/16 01:35:56;;;;;;;15.30;13.90;;;17.00;73.00;;;;;;4983166;28;20022;-76
2022/05/16 01:38:26;;;;;;;15.60;14.10;;;16.90;72.90;;;;;;4985075;28;20121;-76
2022/05/16 01:40:58;;;;;;;15.68;14.07;;;17.00;73.10;;;;;;4974748;28;20038;-76
2022/05/16 01:43:31;;;;;;;14.97;13.07;;;17.00;73.10;;;;;;4973391;28;20038;-76
2022/05/16 01:45:58;;;;;;;16.20;13.05;;;17.00;73.10;;;;;;4967354;28;20042;-76
2022/05/16 01:48:24;;;;;;;14.93;12.95;;;16.90;72.90;;;;;;4995228;28;20062;-76
2022/05/16 01:50:50;;;;;;;14.57;13.05;;;16.90;72.90;;;;;;4986131;28;20038;-76
2022/05/16 01:53:18;;;;;;;14.07;12.57;;;16.90;72.90;;;;;;4985440;28;20037;-75
2022/05/16 01:55:44;;;;;;;15.13;13.63;;;17.00;73.20;;;;;;4962994;28;20129;-76
2022/05/16 01:58:10;;;;;;;14.75;12.52;;;17.00;73.20;;;;;;4968642;28;20085;-76
2022/05/16 02:00:38;;;;;;;15.32;13.68;;;17.00;73.20;;;;;;4973764;28;20061;-76
2022/05/16 02:03:05;;;;;;;15.43;13.18;;;17.00;73.20;;;;;;4990222;28;20400;-76
2022/05/16 02:05:32;;;;;;;13.07;11.60;;;17.00;73.80;;;;;;4978017;28;20054;-76
2022/05/16 02:07:57;;;;;;;15.05;13.25;;;17.00;73.20;;;;;;4994108;28;20109;-74
2022/05/16 02:10:26;;;;;;;14.10;12.15;;;17.00;73.20;;;;;;4989500;28;20442;-76
2022/05/16 02:12:53;;;;;;;15.23;12.15;;;17.00;73.20;;;;;;4989724;28;20477;-75
2022/05/16 02:15:22;;;;;;;11.82;10.70;;;17.10;73.40;;;;;;4962624;28;20041;-75
2022/05/16 02:17:49;;;;;;;13.40;12.13;;;17.10;73.40;;;;;;4973463;28;20149;-74
2022/05/16 02:20:15;;;;;;;13.20;11.85;;;17.10;73.30;;;;;;4992205;28;20026;-74
2022/05/16 02:25:26;;;;;;;12.77;11.48;;;17.10;73.40;;;;;;4989822;28;20459;-75
2022/05/16 02:27:53;;;;;;;11.50;10.40;;;17.10;73.30;;;;;;4987487;28;20033;-74
2022/05/16 02:30:21;;;;;;;12.60;10.43;;;17.10;73.30;;;;;;4989652;28;20038;-74
2022/05/16 02:32:48;;;;;;;16.15;11.43;;;17.10;73.40;;;;;;4996737;28;20536;-75
2022/05/16 02:35:14;;;;;;;12.52;11.30;;;17.10;73.40;;;;;;4988992;28;20044;-75
2022/05/16 02:37:39;;;;;;;11.18;9.98;;;17.10;73.40;;;;;;4970130;28;20034;-74
2022/05/16 02:40:06;;;;;;;11.38;10.20;;;17.10;73.40;;;;;;4996644;28;20040;-75
2022/05/16 02:42:33;;;;;;;10.57;9.60;;;17.20;73.60;;;;;;4994298;28;20030;-74
2022/05/16 02:44:59;;;;;;;11.00;9.75;;;17.20;73.60;;;;;;4963181;28;20049;-74
2022/05/16 02:47:25;;;;;;;13.40;10.63;;;17.20;73.60;;;;;;4988336;28;20050;-75
2022/05/16 02:49:51;;;;;;;11.70;9.77;;;17.10;73.50;;;;;;4971274;28;20031;-74
2022/05/16 02:52:18;;;;;;;11.75;9.88;;;17.10;73.50;;;;;;4987982;28;20528;-75
2022/05/16 02:54:44;;;;;;;11.38;9.63;;;17.10;73.50;;;;;;4989760;28;20358;-75
2022/05/16 02:57:10;;;;;;;9.73;8.80;;;17.10;73.50;;;;;;4994498;28;20467;-74
2022/05/16 02:59:37;;;;;;;11.20;9.95;;;17.10;73.50;;;;;;4989087;28;20053;-74
2022/05/16 03:02:05;;;;;;;12.30;10.63;;;17.10;73.60;;;;;;4984113;28;20034;-75
2022/05/16 03:04:32;;;;;;;10.55;9.55;;;17.10;73.60;;;;;;4989088;28;20504;-75
2022/05/16 03:06:59;;;;;;;9.32;8.48;;;17.10;73.60;;;;;;4965815;28;20470;-75
2022/05/16 03:09:26;;;;;;;9.48;8.50;;;17.10;73.60;;;;;;4989331;28;20421;-75
2022/05/16 03:11:53;;;;;;;12.45;9.05;;;17.10;73.70;;;;;;4987980;28;20030;-75
2022/05/16 03:14:20;;;;;;;10.32;8.75;;;17.10;73.70;;;;;;4952572;28;20030;-74
2022/05/16 03:16:47;;;;;;;9.82;8.82;;;17.10;73.70;;;;;;4995332;28;20517;-75
2022/05/16 03:19:13;;;;;;;12.32;9.48;;;17.10;73.70;;;;;;4977250;28;20038;-75
2022/05/16 03:21:39;;;;;;;10.23;9.13;;;17.10;73.80;;;;;;4978784;28;20132;-75
2022/05/16 03:24:06;;;;;;;8.63;7.63;;;17.10;73.70;;;;;;4970779;28;20034;-74
2022/05/16 03:26:32;;;;;;;14.55;9.15;;;17.10;73.70;;;;;;4988158;28;20100;-75
2022/05/16 03:28:58;;;;;;;10.15;9.10;;;17.10;73.70;;;;;;4977851;28;20034;-73
2022/05/16 03:31:24;;;;;;;10.07;8.55;;;17.20;73.90;;;;;;4988568;28;20034;-74
2022/05/16 03:33:49;;;;;;;10.15;8.38;;;17.10;73.80;;;;;;4983418;28;20038;-75
2022/05/16 03:36:16;;;;;;;10.88;8.50;;;17.20;73.90;;;;;;4988977;28;20485;-75
2022/05/16 03:41:26;;;;;;;10.43;8.63;;;17.20;73.90;;;;;;4986901;28;20037;-75
2022/05/16 03:43:52;;;;;;;10.68;8.23;;;17.20;73.90;;;;;;4976011;28;20049;-74
2022/05/16 03:46:18;;;;;;;9.38;7.43;;;17.20;73.90;;;;;;4978859;28;20058;-75
2022/05/16 03:48:44;;;;;;;10.10;8.25;;;17.20;73.90;;;;;;4985341;28;20052;-75
2022/05/16 03:51:12;;;;;;;11.50;8.63;;;17.20;73.90;;;;;;4991278;28;20182;-75
2022/05/16 03:53:47;;;;;;;10.77;8.07;;;17.20;74.00;;;;;;4983933;28;20113;-76
2022/05/16 03:56:27;;;;;;;13.38;8.65;;;17.20;74.00;;;;;;4990961;28;20026;-75
2022/05/16 03:58:54;;;;;;;10.73;7.85;;;17.10;73.90;;;;;;4987474;28;20061;-75
2022/05/16 04:01:20;;;;;;;10.75;8.20;;;17.10;73.80;;;;;;4982387;28;20029;-75
2022/05/16 04:03:47;;;;;;;11.82;7.78;;;17.10;73.90;;;;;;4995700;28;20045;-75
2022/05/16 04:06:16;;;;;;;10.93;8.10;;;17.10;73.90;;;;;;4979690;28;20046;-75
2022/05/16 04:08:43;;;;;;;9.15;7.90;;;17.10;73.90;;;;;;4988752;28;20034;-75
2022/05/16 04:11:10;;;;;;;12.70;8.55;;;17.10;73.90;;;;;;4964495;28;20409;-74
2022/05/16 04:13:37;;;;;;;10.80;8.13;;;17.10;73.90;;;;;;4987115;28;20437;-75
2022/05/16 04:16:04;;;;;;;12.95;7.95;;;17.10;74.00;;;;;;4968715;28;20033;-75
2022/05/16 04:18:32;;;;;;;10.70;8.23;;;17.10;74.00;;;;;;4980801;28;20033;-75
2022/05/16 04:20:58;;;;;;;11.55;7.90;;;17.10;74.00;;;;;;4986715;28;20041;-76
2022/05/16 04:23:24;;;;;;;13.75;8.60;;;17.10;74.00;;;;;;4973205;28;20509;-75
2022/05/16 04:25:50;;;;;;;13.73;8.23;;;17.10;74.00;;;;;;4991999;28;20077;-76
2022/05/16 04:28:16;;;;;;;11.00;8.02;;;17.10;74.00;;;;;;4967685;28;20036;-75
2022/05/16 04:30:42;;;;;;;10.15;8.55;;;17.10;74.00;;;;;;4958657;28;20129;-76
2022/05/16 04:33:08;;;;;;;9.30;7.85;;;17.10;73.90;;;;;;4974057;28;20039;-75
2022/05/16 04:35:36;;;;;;;12.02;8.32;;;17.10;73.90;;;;;;4984401;28;21959;-76
2022/05/16 04:38:04;;;;;;;10.18;7.40;;;17.10;73.90;;;;;;4985293;28;20027;-75
2022/05/16 04:40:30;;;;;;;11.50;8.57;;;17.10;73.90;;;;;;4963621;28;20065;-75
2022/05/16 04:42:57;;;;;;;9.90;7.50;;;17.20;74.10;;;;;;4985443;28;20026;-75
2022/05/16 04:45:27;;;;;;;9.48;7.85;;;17.20;74.10;;;;;;4969419;28;20043;-75
2022/05/16 04:47:55;;;;;;;9.20;7.25;;;17.20;74.00;;;;;;4981797;28;20057;-75
2022/05/16 04:50:27;;;;;;;8.98;8.05;;;17.20;74.10;;;;;;4977368;28;20042;-75
2022/05/16 04:52:53;;;;;;;9.38;8.43;;;17.20;74.00;;;;;;4983249;28;20728;-75
2022/05/16 04:55:20;;;;;;;12.80;8.63;;;17.20;73.90;;;;;;4986283;28;20104;-75
2022/05/16 04:57:46;;;;;;;10.85;8.35;;;17.30;74.00;;;;;;4974450;28;20121;-75
2022/05/16 05:00:13;;;;;;;12.65;9.25;;;17.30;73.90;;;;;;4982254;28;20133;-75
2022/05/16 05:02:40;;;;;;;11.60;8.23;;;17.30;73.90;;;;;;4990026;28;20030;-75
2022/05/16 05:05:07;;;;;;;11.00;8.80;;;17.40;74.00;;;;;;4982534;28;20042;-75
2022/05/16 05:07:35;;;;;;;10.77;9.05;;;17.40;73.90;;;;;;4973470;28;20029;-74
2022/05/16 05:15:30;;;;;;;13.75;10.27;;;17.50;73.80;;;;;;4983879;28;20034;-75
2022/05/16 05:17:57;;;;;;;11.43;8.82;;;17.50;73.70;;;;;;4983312;28;20030;-75
2022/05/16 05:20:23;;;;;;;13.88;9.88;;;17.50;73.50;;;;;;4987850;28;20022;-76
2022/05/16 05:22:49;;;;;;;9.48;8.38;;;17.60;73.70;;;;;;4949616;28;20095;-76
2022/05/16 05:25:19;;;;;;;12.00;8.95;;;17.60;73.60;;;;;;4985260;28;20137;-76
2022/05/16 05:27:48;;;;;;;10.68;8.48;;;17.70;73.70;;;;;;4978014;28;20037;-76
2022/05/16 05:30:21;;;;;;;12.23;9.65;;;17.70;73.50;;;;;;4977480;28;20037;-76
2022/05/16 05:32:48;;;;;;;11.27;8.93;;;17.80;73.70;;;;;;4972981;28;20037;-75
2022/05/16 05:35:14;;;;;;;10.20;8.88;;;17.80;73.60;;;;;;4968729;28;20033;-76
2022/05/16 05:37:40;;;;;;;11.88;9.27;;;17.80;73.60;;;;;;4977366;28;20061;-75
2022/05/16 05:40:08;;;;;;;10.90;9.38;;;17.80;73.60;;;;;;4993767;28;20036;-77
2022/05/16 05:42:35;;;;;;;12.50;10.00;;;17.80;73.60;;;;;;4970562;28;20058;-76
2022/05/16 05:45:02;;;;;;;10.65;8.90;;;17.70;73.40;;;;;;4992133;28;20061;-75
2022/05/16 05:47:28;;;;;;;9.18;8.20;;;17.70;73.40;;;;;;4972743;28;20046;-75
2022/05/16 05:49:54;;;;;;;10.57;8.13;;;17.80;73.70;;;;;;4981374;28;20023;-75
2022/05/16 05:52:20;;;;;;;11.38;9.13;;;17.70;73.50;;;;;;4982006;28;20049;-75
2022/05/16 05:54:48;;;;;;;9.85;8.82;;;17.70;73.60;;;;;;4971747;28;20046;-75
2022/05/16 05:57:16;;;;;;;14.38;10.95;;;17.70;73.60;;;;;;4989944;28;20041;-76
2022/05/16 05:59:42;;;;;;;11.55;9.48;;;17.70;73.70;;;;;;4959181;28;20068;-77
2022/05/16 06:02:09;;;;;;;11.48;9.75;;;17.70;73.70;;;;;;4983763;28;20092;-75
2022/05/16 06:04:35;;;;;;;11.25;8.10;;;17.60;73.50;;;;;;4979796;28;20044;-77
2022/05/16 06:07:02;;;;;;;11.63;9.43;;;17.60;73.60;;;;;;4964996;28;20608;-77
2022/05/16 06:09:28;;;;;;;10.98;8.65;;;17.60;73.60;;;;;;4980065;28;20121;-76
2022/05/16 06:11:58;;;;;;;10.48;9.18;;;17.60;73.60;;;;;;4981833;28;20039;-75
2022/05/16 06:14:26;;;;;;;10.88;9.70;;;17.60;73.60;;;;;;4984310;28;20030;-75
2022/05/16 06:16:52;;;;;;;11.30;10.10;;;17.70;73.70;;;;;;4982914;28;20285;-75
2022/05/16 06:19:18;;;;;;;11.13;9.23;;;17.70;73.70;;;;;;4987363;28;20046;-75
2022/05/16 06:21:45;;;;;;;12.93;9.73;;;17.70;73.60;;;;;;4983175;28;20073;-75
2022/05/16 06:25:31;;;;;;;12.05;9.35;;;17.70;73.50;;;;;;4987912;28;20043;-76
2022/05/16 06:26:58;;;;;;;12.63;9.30;;;17.80;73.50;;;;;;4978406;28;20050;-76
2022/05/16 06:29:25;;;;;;;10.48;9.10;;;17.80;73.30;;;;;;4983236;28;20026;-76
2022/05/16 06:31:52;;;;;;;13.02;10.25;;;17.80;73.30;;;;;;4980774;28;20043;-76
2022/05/16 06:34:18;;;;;;;10.77;9.00;;;17.90;73.50;;;;;;4985857;28;20084;-75
2022/05/16 06:36:44;;;;;;;11.48;9.50;;;17.90;73.40;;;;;;4955365;28;20035;-75
2022/05/16 06:39:10;;;;;;;9.48;8.48;;;17.90;73.40;;;;;;4981503;28;20094;-77
2022/05/16 06:41:36;;;;;;;11.13;8.90;;;18.00;73.50;;;;;;4976865;28;20617;-77
2022/05/16 06:44:02;;;;;;;11.68;9.45;;;18.00;73.30;;;;;;4981643;28;20430;-76
2022/05/16 06:46:28;;;;;;;10.68;8.98;;;18.10;73.40;;;;;;4976979;28;20058;-76
2022/05/16 06:48:54;;;;;;;10.18;9.18;;;18.20;73.30;;;;;;4985746;28;20536;-77
2022/05/16 06:51:20;;;;;;;11.43;8.75;;;18.20;73.20;;;;;;4982987;28;20031;-76
2022/05/16 06:53:46;;;;;;;10.55;8.93;;;18.30;73.30;;;;;;4983618;28;20038;-76
2022/05/16 06:56:12;;;;;;;10.35;7.55;;;18.30;73.20;;;;;;4968427;28;20045;-73
2022/05/16 06:58:38;;;;;;;11.35;8.98;;;18.30;73.20;;;;;;4982981;28;20030;-76
2022/05/16 07:01:04;;;;;;;13.95;9.60;;;18.30;73.20;;;;;;4984373;28;20030;-76
2022/05/16 07:03:32;;;;;;;9.15;7.93;;;18.30;73.10;;;;;;4970458;28;20035;-75
2022/05/16 07:05:58;;;;;;;10.07;8.50;;;18.30;73.20;;;;;;4971435;28;20034;-75
2022/05/16 07:08:25;;;;;;;11.68;9.13;;;18.30;73.20;;;;;;4980368;28;20049;-76
2022/05/16 07:10:52;;;;;;;10.95;7.93;;;18.30;73.20;;;;;;4976789;28;20328;-76
2022/05/16 07:13:18;;;;;;;8.68;7.70;;;18.40;73.40;;;;;;5010874;28;20034;-77
2022/05/16 07:15:45;;;;;;;10.32;8.10;;;18.40;73.20;;;;;;5013919;28;20018;-76
2022/05/16 07:18:11;;;;;;;9.93;8.23;;;18.50;73.30;;;;;;4997905;28;20034;-76
2022/05/16 07:20:39;;;;;;;9.15;7.40;;;18.60;73.30;;;;;;5003356;28;20042;-77
2022/05/16 07:23:05;;;;;;;11.48;7.97;;;18.70;73.30;;;;;;4998040;28;20048;-76
2022/05/16 07:27:56;;;;;;;10.43;7.15;;;18.80;73.20;;;;;;4990879;28;20042;-77
2022/05/16 07:28:18;;;;;;;10.35;7.05;;;18.90;73.00;;;;;;4989182;28;20031;-75
2022/05/16 07:30:44;;;;;;;11.52;8.95;;;19.00;72.90;;;;;;4969945;28;20498;-76
2022/05/16 07:33:10;;;;;;;8.63;7.65;;;19.20;73.00;;;;;;4976107;28;20038;-76
2022/05/16 07:35:38;;;;;;;10.00;7.57;;;19.30;72.90;;;;;;4985582;28;20331;-78
2022/05/16 07:38:05;;;;;;;7.93;7.18;;;19.40;72.80;;;;;;4987222;28;20026;-76
2022/05/16 07:40:35;;;;;;;7.78;6.32;;;19.50;72.80;;;;;;4986615;28;20398;-78
2022/05/16 07:43:02;;;;;;;7.88;6.88;;;19.60;72.70;;;;;;4991616;28;20042;-80
2022/05/16 07:45:28;;;;;;;9.43;6.45;;;19.80;72.80;;;;;;4986099;28;20128;-76
2022/05/16 07:47:55;;;;;;;8.60;6.65;;;20.00;72.90;;;;;;4988669;28;20439;-76
2022/05/16 07:50:21;;;;;;;7.70;5.95;;;20.30;72.50;;;;;;4981514;28;20097;-76
2022/05/16 07:52:48;;;;;;;8.75;6.65;;;20.50;72.20;;;;;;4961861;28;20080;-76
2022/05/16 07:55:16;;;;;;;9.23;6.75;;;20.70;72.10;;;;;;4955072;28;20057;-76
2022/05/16 07:57:42;;;;;;;7.97;5.78;;;20.90;72.00;;;;;;4983098;28;20030;-76
2022/05/16 08:00:09;;;;;;;9.15;6.88;;;21.10;72.00;;;;;;4985091;28;20034;-79
2022/05/16 08:02:39;;;;;;;8.80;6.53;;;21.20;71.80;;;;;;4995106;28;20494;-77
2022/05/16 08:05:10;;;;;;;5.55;4.78;;;21.40;71.70;;;;;;4992301;28;20042;-76
2022/05/16 08:10:29;;;;;;;6.32;5.30;;;21.60;71.90;;;;;;4985199;28;20046;-76
2022/05/16 08:10:32;;;;;;;8.38;6.22;;;22.00;71.90;;;;;;4989152;28;20038;-81
2022/05/16 08:13:00;;;;;;;6.65;4.78;;;22.30;71.60;;;;;;4979755;28;20030;-76
2022/05/16 08:15:27;;;;;;;9.48;5.00;;;22.60;71.50;;;;;;4988128;28;20557;-77
2022/05/16 08:17:54;;;;;;;5.75;4.32;;;23.00;71.30;;;;;;4985925;28;20733;-77
2022/05/16 08:20:19;;;;;;;7.15;4.65;;;23.10;70.90;;;;;;4986146;28;20034;-78
2022/05/16 08:22:46;;;;;;;7.05;5.00;;;23.10;70.70;;;;;;4985660;28;20091;-79
2022/05/16 08:25:13;;;;;;;6.30;4.38;;;23.10;70.70;;;;;;4990777;28;20034;-78
2022/05/16 08:27:39;;;;;;;5.63;4.30;;;23.10;70.50;;;;;;4977134;28;20121;-78
2022/05/16 08:30:05;;;;;;;4.93;4.10;;;23.10;70.40;;;;;;4991307;28;20450;-78
2022/05/16 08:32:31;;;;;;;6.35;4.35;;;23.10;70.30;;;;;;4994071;28;20034;-77
2022/05/16 08:35:02;;;;;;;4.30;3.53;;;23.10;70.80;;;;;;4967686;28;20363;-78
2022/05/16 08:40:14;;;;;;;6.20;3.92;;;23.40;70.30;;;;;;4983066;28;20493;-78
2022/05/16 08:42:47;;;;;;;6.78;4.43;;;23.60;70.00;;;;;;4967066;28;20053;-77
2022/05/16 08:45:32;;;;;;;6.15;3.80;;;23.70;69.70;;;;;;4984640;28;20038;-77
2022/05/16 08:48:04;;;;;;;7.43;3.90;;;23.80;69.60;;;;;;4985892;28;20046;-78
2022/05/16 08:50:41;;;;;;;5.60;3.20;;;23.70;69.50;;;;;;4963838;28;20280;-77
2022/05/16 08:53:18;;;;;;;4.05;2.95;;;23.50;69.40;;;;;;4988114;28;20030;-78
2022/05/16 08:55:49;;;;;;;6.95;3.33;;;23.40;69.40;;;;;;4963815;28;20038;-76
2022/05/16 08:58:33;;;;;;;6.28;3.58;;;23.30;69.60;;;;;;4984965;28;20037;-75
2022/05/16 09:01:03;;;;;;;5.47;3.55;;;23.20;69.60;;;;;;4987026;28;20042;-76
2022/05/16 09:03:33;;;;;;;4.18;3.28;;;23.30;69.70;;;;;;4958684;28;20411;-76
2022/05/16 09:06:12;;;;;;;4.18;2.95;;;23.40;69.70;;;;;;4991801;28;20457;-77
2022/05/16 09:09:09;;;;;;;3.85;3.03;;;23.50;69.40;;;;;;4988035;28;20065;-76
2022/05/16 09:11:56;;;;;;;4.05;2.63;;;23.80;69.40;;;;;;4973584;28;20093;-76
2022/05/16 09:14:31;;;;;;;3.00;2.55;;;24.00;69.20;;;;;;4995395;28;20037;-77
2022/05/16 09:17:04;;;;;;;4.63;3.30;;;24.10;69.10;;;;;;4981553;28;20097;-78
2022/05/16 09:19:54;;;;;;;5.97;2.55;;;24.10;68.90;;;;;;4957007;28;20030;-79
2022/05/16 09:22:41;;;;;;;3.88;2.30;;;24.30;69.00;;;;;;4981006;28;20034;-77
2022/05/16 09:25:18;;;;;;;5.93;3.03;;;24.40;68.90;;;;;;4985962;28;20092;-79
2022/05/16 09:30:35;;;;;;;7.50;2.47;;;25.10;68.70;;;;;;4977885;28;20054;-79
2022/05/16 09:33:11;;;;;;;8.50;2.42;;;25.50;68.10;;;;;;4983808;28;20335;-79
2022/05/16 09:36:00;;;;;;;8.02;2.55;;;25.80;67.10;;;;;;4980816;28;20037;-79
2022/05/16 09:38:26;;;;;;;7.78;2.00;;;26.00;66.00;;;;;;4980813;28;20035;-79
2022/05/16 09:41:01;;;;;;;7.43;2.50;;;26.20;65.40;;;;;;4980130;28;20041;-78
2022/05/16 09:43:38;;;;;;;7.78;2.50;;;26.20;64.60;;;;;;4974509;28;20049;-78
2022/05/16 09:46:30;;;;;;;6.93;2.38;;;26.30;64.40;;;;;;4974724;28;20062;-79
2022/05/16 09:49:04;;;;;;;9.20;2.35;;;26.30;63.70;;;;;;4962817;28;20030;-80
2022/05/16 09:51:37;;;;;;;8.55;3.20;;;26.30;63.60;;;;;;4960385;28;20041;-81
2022/05/16 09:54:30;;;;;;;;;;;26.40;63.40;;;;;;4979450;28;20104;-83
2022/05/16 09:57:16;;;;;;;7.27;2.60;;;26.30;63.30;;;;;;4972686;28;20028;-80
2022/05/16 09:59:51;;;;;;;6.55;2.03;;;26.30;63.20;;;;;;4977994;28;20724;-82
2022/05/16 10:02:28;;;;;;;7.60;2.40;;;26.30;63.10;;;;;;4984004;28;20065;-80
2022/05/16 10:05:00;;;;;;;11.13;2.63;;;26.30;62.70;;;;;;4976848;28;20118;-80
2022/05/16 10:07:45;;;;;;;7.32;2.28;;;26.20;62.60;;;;;;4982848;28;20058;-79
2022/05/16 10:10:21;;;;;;;8.82;2.45;;;26.00;62.60;;;;;;4984417;28;20190;-80
2022/05/16 10:12:49;;;;;;;7.32;2.00;;;25.70;62.60;;;;;;4980232;28;20049;-77
2022/05/16 10:15:17;;;;;;;10.57;2.40;;;25.60;63.00;;;;;;4983947;28;20465;-79
2022/05/16 10:17:45;;;;;;;6.20;2.42;;;25.50;63.00;;;;;;4982528;28;20676;-79
2022/05/16 10:20:17;;;;;;;7.75;2.95;;;25.60;63.00;;;;;;4953365;28;20031;-80
2022/05/16 10:22:45;;;;;;;7.97;2.08;;;25.70;62.60;;;;;;4986909;28;20524;-80
2022/05/16 10:25:18;;;;;;;9.77;3.00;;;25.80;62.20;;;;;;4982241;28;20044;-79
2022/05/16 10:27:46;;;;;;;11.13;2.97;;;25.90;61.90;;;;;;4980896;28;20034;-79
2022/05/16 10:30:22;;;;;;;5.72;2.15;;;25.90;61.70;;;;;;4992960;28;20097;-79
2022/05/16 10:35:45;;;;;;;6.90;2.60;;;26.40;61.00;;;;;;4973773;28;20129;-78
2022/05/16 10:38:18;;;;;;;6.82;2.00;;;26.70;60.40;;;;;;4969673;28;20069;-79
2022/05/16 10:40:51;;;;;;;8.70;2.53;;;27.00;59.50;;;;;;5000040;28;20485;-79
2022/05/16 10:43:46;;;;;;;;;;;27.10;59.00;;;;;;4972474;28;20030;-80
2022/05/16 10:46:25;;;;;;;13.82;2.67;;;26.90;59.20;;;;;;4973608;28;19932;-81
2022/05/16 10:48:52;;;;;;;8.77;2.45;;;26.70;59.50;;;;;;4982044;28;20581;-81
2022/05/16 10:51:38;;;;;;;11.38;2.35;;;26.40;59.90;;;;;;4991744;28;20045;-79
2022/05/16 10:54:10;;;;;;;9.30;2.75;;;26.00;60.10;;;;;;4980435;28;20039;-77
2022/05/16 10:57:04;;;;;;;10.48;2.30;;;25.70;60.70;;;;;;4989421;28;20038;-79
2022/05/16 11:00:10;;;;;;;9.90;2.95;;;25.30;61.10;;;;;;4998963;28;20023;-78
2022/05/16 11:03:07;;;;;;;8.10;3.50;;;24.90;61.90;;;;;;5012973;28;20034;-79
2022/05/16 11:06:06;;;;;;;9.98;2.50;;;24.50;62.50;;;;;;5001234;28;20252;-78
2022/05/16 11:08:47;;;;;;;10.13;2.60;;;24.10;62.90;;;;;;5000125;28;20307;-80
2022/05/16 11:11:25;;;;;;;8.43;2.70;;;24.10;63.60;;;;;;4969509;28;20576;-80
2022/05/16 11:14:08;;;;;;;12.45;3.90;;;24.20;63.90;;;;;;4997126;28;20034;-77
2022/05/16 11:16:38;;;;;;;8.45;3.35;;;24.50;64.40;;;;;;4985144;28;20038;-87
2022/05/16 11:19:12;;;;;;;10.63;3.60;;;24.80;64.50;;;;;;4985828;28;20045;-82
2022/05/16 11:22:09;;;;;;;12.90;4.03;;;25.10;64.40;;;;;;5002884;28;20022;-82
2022/05/16 11:24:51;;;;;;;10.25;3.70;;;25.20;64.10;;;;;;4985963;28;20049;-81
2022/05/16 11:27:24;;;;;;;12.93;3.72;;;25.40;64.00;;;;;;4998538;28;20030;-81
2022/05/16 11:30:07;;;;;;;11.25;2.78;;;25.50;64.00;;;;;;4999699;28;20026;-80
2022/05/16 11:32:51;;;;;;;10.80;3.53;;;25.60;63.70;;;;;;4987999;28;20084;-79
2022/05/16 11:35:27;;;;;;;9.93;3.58;;;25.70;63.40;;;;;;4987623;28;20561;-80
2022/05/16 11:38:13;;;;;;;11.73;3.85;;;25.70;63.40;;;;;;4969439;28;20038;-81
2022/05/16 11:40:50;;;;;;;8.63;2.58;;;25.90;63.20;;;;;;4989041;28;20493;-82
2022/05/16 11:43:19;;;;;;;11.20;3.05;;;26.10;62.80;;;;;;4968336;28;20057;-82
2022/05/16 11:46:14;;;;;;;7.55;2.38;;;26.30;62.30;;;;;;4997019;28;20132;-86
2022/05/16 11:49:16;;;;;;;6.57;2.35;;;26.50;61.80;;;;;;4942544;28;20082;-79
2022/05/16 11:51:49;;;;;;;11.43;3.05;;;26.30;62.00;;;;;;4981203;28;20116;-83
2022/05/16 11:54:22;;;;;;;5.22;2.58;;;26.20;61.80;;;;;;4983544;28;20030;-82
2022/05/16 12:02:29;;;;;;;8.40;2.45;;;25.80;61.90;;;;;;4977989;28;20057;-79
2022/05/16 12:05:00;;;;;;;7.68;2.45;;;25.60;62.30;;;;;;4975480;28;20033;-77
2022/05/16 12:07:38;;;;;;;8.68;2.65;;;25.40;62.30;;;;;;4997607;28;20161;-78
2022/05/16 12:10:11;;;;;;;9.35;2.70;;;25.40;62.50;;;;;;4994496;28;20555;-78
2022/05/16 12:12:44;;;;;;;6.85;2.33;;;25.40;62.40;;;;;;4985422;28;20027;-78
2022/05/16 12:15:16;;;;;;;8.93;2.80;;;25.50;62.20;;;;;;4985239;28;20033;-78
2022/05/16 12:18:01;;;;;;;7.47;1.97;;;25.70;62.00;;;;;;4990072;28;20025;-81
2022/05/16 12:20:42;;;;;;;5.72;2.17;;;25.80;61.40;;;;;;4969470;28;21137;-80
2022/05/16 12:23:11;;;;;;;7.30;1.70;;;25.90;61.20;;;;;;4992146;28;20405;-80
2022/05/16 12:25:40;;;;;;;9.27;2.42;;;25.90;61.10;;;;;;4989095;28;20049;-80
2022/05/16 12:28:12;;;;;;;6.35;2.00;;;25.90;60.90;;;;;;4993571;28;20107;-79
2022/05/16 12:30:42;;;;;;;9.73;2.63;;;26.00;60.50;;;;;;4989149;28;20050;-82
2022/05/16 12:33:26;;;;;;;7.90;2.03;;;26.10;60.20;;;;;;4996357;28;20040;-84
2022/05/16 12:35:53;;;;;;;7.22;2.28;;;26.30;59.80;;;;;;4990117;28;20544;-79
2022/05/16 12:38:22;;;;;;;8.93;2.88;;;26.60;59.40;;;;;;4993427;28;20042;-84
2022/05/16 12:41:38;;;;;;;8.02;2.60;;;26.80;58.70;;;;;;4978297;28;20034;-78
2022/05/16 12:44:13;;;;;;;7.03;1.85;;;27.20;57.70;;;;;;4988901;28;20482;-79
2022/05/16 12:46:46;;;;;;;7.28;1.48;;;27.40;57.30;;;;;;5000243;28;20050;-78
2022/05/16 12:49:37;;;;;;;7.38;2.03;;;27.50;56.50;;;;;;5010160;28;20507;-79
2022/05/16 12:52:16;;;;;;;9.55;2.67;;;27.70;56.30;;;;;;4984174;28;20054;-79
2022/05/16 12:54:49;;;;;;;8.68;2.50;;;27.70;55.40;;;;;;4995442;28;20094;-79
2022/05/16 12:57:21;;;;;;;5.60;1.88;;;27.60;55.50;;;;;;4994383;28;20062;-81
2022/05/16 13:00:04;;;;;;;9.13;2.20;;;27.50;55.60;;;;;;4998249;28;20133;-82
2022/05/16 13:02:52;;;;;;;8.13;1.98;;;27.60;55.40;;;;;;5004400;28;20022;-83
2022/05/16 13:05:29;;;;;;;6.28;1.58;;;27.80;55.10;;;;;;4980753;28;20044;-81
2022/05/16 13:08:13;;;;;;;6.20;1.90;;;27.90;54.80;;;;;;4979465;28;20041;-84
2022/05/16 13:10:58;;;;;;;5.32;1.85;;;27.90;54.40;;;;;;4973348;28;20027;-82
2022/05/16 13:13:43;;;;;;;7.55;1.50;;;27.80;54.40;;;;;;4981439;28;20038;-81
2022/05/16 13:16:37;;;;;;;9.18;2.13;;;27.60;54.50;;;;;;4985651;28;20041;-82
2022/05/16 13:19:07;;;;;;;8.40;2.03;;;27.30;54.40;;;;;;4984905;28;20281;-81
2022/05/16 13:21:37;;;;;;;7.88;2.45;;;27.20;54.80;;;;;;4981704;28;20028;-82
2022/05/16 13:24:11;;;;;;;5.28;1.65;;;27.00;54.90;;;;;;4971686;28;20033;-81
2022/05/16 13:29:22;;;;;;;4.05;1.33;;;26.60;55.70;;;;;;4997285;28;20021;-75
2022/05/16 13:31:55;;;;;;;3.55;1.00;;;26.50;56.10;;;;;;4989509;28;20034;-79